sensor_id;sensor_type;location;lat;lon;timestamp;P1;durP1;ratioP1;P2;durP2;ratioP2
5845;SDS011;2949;50.778;7.094;2023-04-15T00:01:54;5.60;;;2.90;;
5845;SDS011;2949;50.778;7.094;2023-04-15T00:04:22;7.33;;;3.20;;
5845;SDS011;2949;50.778;7.094;2023-04-15T00:06:50;7.80;;;3.53;;
5845;SDS011;2949;50.778;7.094;2023-04-15T00:09:17;9.43;;;3.73;;
5845;SDS011;2949;50.778;7.094;2023-04-15T00:11:43;6.77;;;3.27;;
5845;SDS011;2949;50.778;7.094;2023-04-15T00:14:11;10.33;;;3.10;;
5845;SDS011;2949;50.778;7.094;2023-04-15T00:16:37;10.00;;;3.43;;
5845;SDS011;2949;50.778;7.094;2023-04-15T00:19:02;8.77;;;3.63;;
5845;SDS011;2949;50.778;7.094;2023-04-15T00:21:28;5.03;;;2.90;;
5845;SDS011;2949;50.778;7.094;2023-04-15T00:23:53;6.60;;;2.33;;
5845;SDS011;2949;50.778;7.094;2023-04-15T00:26:19;4.63;;;2.70;;
5845;SDS011;2949;50.778;7.094;2023-04-15T00:28:45;6.50;;;2.83;;
5845;SDS011;2949;50.778;7.094;2023-04-15T00:31:11;6.83;;;3.17;;
5845;SDS011;2949;50.778;7.094;2023-04-15T00:33:36;5.47;;;2.53;;
5845;SDS011;2949;50.778;7.094;2023-04-15T00:36:02;12.73;;;3.30;;
5845;SDS011;2949;50.778;7.094;2023-04-15T00:38:28;8.20;;;2.87;;
5845;SDS011;2949;50.778;7.094;2023-04-15T00:40:54;4.27;;;2.80;;
5845;SDS011;2949;50.778;7.094;2023-04-15T00:43:20;2.97;;;2.30;;
5845;SDS011;2949;50.778;7.094;2023-04-15T00:45:46;6.73;;;3.20;;
5845;SDS011;2949;50.778;7.094;2023-04-15T00:48:11;4.37;;;2.57;;
5845;SDS011;2949;50.778;7.094;2023-04-15T00:50:37;12.33;;;4.13;;
5845;SDS011;2949;50.778;7.094;2023-04-15T00:53:03;6.60;;;3.77;;
5845;SDS011;2949;50.778;7.094;2023-04-15T00:55:28;10.13;;;2.70;;
5845;SDS011;2949;50.778;7.094;2023-04-15T00:57:55;8.30;;;3.33;;
5845;SDS011;2949;50.778;7.094;2023-04-15T01:00:21;6.00;;;3.00;;
5845;SDS011;2949;50.778;7.094;2023-04-15T01:02:47;11.93;;;3.40;;
5845;SDS011;2949;50.778;7.094;2023-04-15T01:05:13;13.30;;;3.77;;
5845;SDS011;2949;50.778;7.094;2023-04-15T01:07:41;9.63;;;3.50;;
5845;SDS011;2949;50.778;7.094;2023-04-15T01:10:07;4.97;;;2.80;;
5845;SDS011;2949;50.778;7.094;2023-04-15T01:12:33;6.80;;;4.07;;
5845;SDS011;2949;50.778;7.094;2023-04-15T01:14:59;7.00;;;3.00;;
5845;SDS011;2949;50.778;7.094;2023-04-15T01:17:26;6.30;;;3.53;;
5845;SDS011;2949;50.778;7.094;2023-04-15T01:19:52;7.10;;;3.23;;
5845;SDS011;2949;50.778;7.094;2023-04-15T01:22:21;4.77;;;2.50;;
5845;SDS011;2949;50.778;7.094;2023-04-15T01:24:54;6.97;;;3.40;;
5845;SDS011;2949;50.778;7.094;2023-04-15T01:27:28;6.40;;;2.60;;
5845;SDS011;2949;50.778;7.094;2023-04-15T01:29:55;7.53;;;3.40;;
5845;SDS011;2949;50.778;7.094;2023-04-15T01:32:20;13.50;;;3.67;;
5845;SDS011;2949;50.778;7.094;2023-04-15T01:34:46;16.17;;;3.63;;
5845;SDS011;2949;50.778;7.094;2023-04-15T01:37:12;7.30;;;2.90;;
5845;SDS011;2949;50.778;7.094;2023-04-15T01:39:37;6.23;;;3.50;;
5845;SDS011;2949;50.778;7.094;2023-04-15T01:42:03;3.83;;;2.63;;
5845;SDS011;2949;50.778;7.094;2023-04-15T01:44:28;4.80;;;2.80;;
5845;SDS011;2949;50.778;7.094;2023-04-15T01:46:54;3.70;;;2.83;;
5845;SDS011;2949;50.778;7.094;2023-04-15T01:49:20;8.70;;;2.90;;
5845;SDS011;2949;50.778;7.094;2023-04-15T01:51:45;8.70;;;2.50;;
5845;SDS011;2949;50.778;7.094;2023-04-15T01:54:11;7.77;;;3.13;;
5845;SDS011;2949;50.778;7.094;2023-04-15T01:56:36;12.13;;;3.10;;
5845;SDS011;2949;50.778;7.094;2023-04-15T01:59:02;10.03;;;2.90;;
5845;SDS011;2949;50.778;7.094;2023-04-15T02:01:28;8.70;;;3.90;;
5845;SDS011;2949;50.778;7.094;2023-04-15T02:03:53;6.43;;;3.07;;
5845;SDS011;2949;50.778;7.094;2023-04-15T02:06:19;6.73;;;3.10;;
5845;SDS011;2949;50.778;7.094;2023-04-15T02:08:45;6.07;;;3.30;;
5845;SDS011;2949;50.778;7.094;2023-04-15T02:11:10;4.03;;;3.03;;
5845;SDS011;2949;50.778;7.094;2023-04-15T02:13:36;10.43;;;3.43;;
5845;SDS011;2949;50.778;7.094;2023-04-15T02:16:01;7.53;;;3.13;;
5845;SDS011;2949;50.778;7.094;2023-04-15T02:18:27;8.83;;;3.57;;
5845;SDS011;2949;50.778;7.094;2023-04-15T02:20:53;6.50;;;3.37;;
5845;SDS011;2949;50.778;7.094;2023-04-15T02:23:19;12.97;;;3.80;;
5845;SDS011;2949;50.778;7.094;2023-04-15T02:25:45;7.47;;;3.37;;
5845;SDS011;2949;50.778;7.094;2023-04-15T02:28:11;12.60;;;2.90;;
5845;SDS011;2949;50.778;7.094;2023-04-15T02:30:36;6.80;;;2.90;;
5845;SDS011;2949;50.778;7.094;2023-04-15T02:33:02;8.03;;;3.40;;
5845;SDS011;2949;50.778;7.094;2023-04-15T02:35:28;11.67;;;3.33;;
5845;SDS011;2949;50.778;7.094;2023-04-15T02:37:53;8.43;;;2.80;;
5845;SDS011;2949;50.778;7.094;2023-04-15T02:40:19;6.90;;;3.00;;
5845;SDS011;2949;50.778;7.094;2023-04-15T02:42:44;9.70;;;3.63;;
5845;SDS011;2949;50.778;7.094;2023-04-15T02:45:10;11.33;;;3.90;;
5845;SDS011;2949;50.778;7.094;2023-04-15T02:47:36;5.13;;;3.20;;
5845;SDS011;2949;50.778;7.094;2023-04-15T02:50:06;9.60;;;3.30;;
5845;SDS011;2949;50.778;7.094;2023-04-15T02:52:33;9.83;;;3.70;;
5845;SDS011;2949;50.778;7.094;2023-04-15T02:54:59;10.60;;;3.93;;
5845;SDS011;2949;50.778;7.094;2023-04-15T02:57:26;4.27;;;3.17;;
5845;SDS011;2949;50.778;7.094;2023-04-15T02:59:53;8.40;;;3.70;;
5845;SDS011;2949;50.778;7.094;2023-04-15T03:02:19;6.17;;;2.77;;
5845;SDS011;2949;50.778;7.094;2023-04-15T03:04:45;5.40;;;3.10;;
5845;SDS011;2949;50.778;7.094;2023-04-15T03:07:10;10.93;;;3.90;;
5845;SDS011;2949;50.778;7.094;2023-04-15T03:09:36;4.10;;;3.13;;
5845;SDS011;2949;50.778;7.094;2023-04-15T03:12:03;10.50;;;3.50;;
5845;SDS011;2949;50.778;7.094;2023-04-15T03:14:29;13.40;;;3.07;;
5845;SDS011;2949;50.778;7.094;2023-04-15T03:16:54;8.87;;;3.70;;
5845;SDS011;2949;50.778;7.094;2023-04-15T03:19:20;5.63;;;4.00;;
5845;SDS011;2949;50.778;7.094;2023-04-15T03:21:46;6.70;;;3.30;;
5845;SDS011;2949;50.778;7.094;2023-04-15T03:24:11;7.87;;;4.10;;
5845;SDS011;2949;50.778;7.094;2023-04-15T03:26:37;8.10;;;4.10;;
5845;SDS011;2949;50.778;7.094;2023-04-15T03:29:02;11.00;;;3.60;;
5845;SDS011;2949;50.778;7.094;2023-04-15T03:31:27;7.00;;;3.43;;
5845;SDS011;2949;50.778;7.094;2023-04-15T03:33:53;8.80;;;3.70;;
5845;SDS011;2949;50.778;7.094;2023-04-15T03:36:18;5.83;;;3.23;;
5845;SDS011;2949;50.778;7.094;2023-04-15T03:38:44;8.80;;;4.37;;
5845;SDS011;2949;50.778;7.094;2023-04-15T03:41:10;9.23;;;4.07;;
5845;SDS011;2949;50.778;7.094;2023-04-15T03:43:36;11.20;;;4.80;;
5845;SDS011;2949;50.778;7.094;2023-04-15T03:46:01;3.90;;;3.10;;
5845;SDS011;2949;50.778;7.094;2023-04-15T03:48:27;6.67;;;4.13;;
5845;SDS011;2949;50.778;7.094;2023-04-15T03:50:52;10.73;;;4.67;;
5845;SDS011;2949;50.778;7.094;2023-04-15T03:53:18;8.40;;;4.33;;
5845;SDS011;2949;50.778;7.094;2023-04-15T03:55:45;15.63;;;4.50;;
5845;SDS011;2949;50.778;7.094;2023-04-15T03:58:11;6.93;;;3.93;;
5845;SDS011;2949;50.778;7.094;2023-04-15T04:00:37;6.60;;;3.97;;
5845;SDS011;2949;50.778;7.094;2023-04-15T04:03:03;7.03;;;4.30;;
5845;SDS011;2949;50.778;7.094;2023-04-15T04:05:28;5.23;;;4.20;;
5845;SDS011;2949;50.778;7.094;2023-04-15T04:07:54;8.23;;;4.13;;
5845;SDS011;2949;50.778;7.094;2023-04-15T04:10:20;9.23;;;4.30;;
5845;SDS011;2949;50.778;7.094;2023-04-15T04:12:45;14.43;;;4.47;;
5845;SDS011;2949;50.778;7.094;2023-04-15T04:15:11;10.50;;;3.73;;
5845;SDS011;2949;50.778;7.094;2023-04-15T04:17:36;11.30;;;4.80;;
5845;SDS011;2949;50.778;7.094;2023-04-15T04:20:02;9.50;;;3.83;;
5845;SDS011;2949;50.778;7.094;2023-04-15T04:22:28;8.20;;;3.73;;
5845;SDS011;2949;50.778;7.094;2023-04-15T04:24:53;7.20;;;4.53;;
5845;SDS011;2949;50.778;7.094;2023-04-15T04:27:19;7.90;;;4.03;;
5845;SDS011;2949;50.778;7.094;2023-04-15T04:29:44;9.13;;;3.97;;
5845;SDS011;2949;50.778;7.094;2023-04-15T04:32:11;9.07;;;5.20;;
5845;SDS011;2949;50.778;7.094;2023-04-15T04:34:37;12.63;;;5.30;;
5845;SDS011;2949;50.778;7.094;2023-04-15T04:37:02;18.17;;;5.30;;
5845;SDS011;2949;50.778;7.094;2023-04-15T04:39:28;12.97;;;5.27;;
5845;SDS011;2949;50.778;7.094;2023-04-15T04:41:53;11.70;;;5.10;;
5845;SDS011;2949;50.778;7.094;2023-04-15T04:44:19;10.70;;;4.73;;
5845;SDS011;2949;50.778;7.094;2023-04-15T04:46:46;12.60;;;4.60;;
5845;SDS011;2949;50.778;7.094;2023-04-15T04:49:11;11.53;;;5.37;;
5845;SDS011;2949;50.778;7.094;2023-04-15T04:51:37;7.20;;;5.37;;
5845;SDS011;2949;50.778;7.094;2023-04-15T04:54:02;5.10;;;4.20;;
5845;SDS011;2949;50.778;7.094;2023-04-15T04:56:28;6.70;;;4.07;;
5845;SDS011;2949;50.778;7.094;2023-04-15T04:58:53;10.30;;;4.53;;
5845;SDS011;2949;50.778;7.094;2023-04-15T05:01:19;6.93;;;3.90;;
5845;SDS011;2949;50.778;7.094;2023-04-15T05:03:45;7.80;;;4.50;;
5845;SDS011;2949;50.778;7.094;2023-04-15T05:06:10;10.00;;;5.20;;
5845;SDS011;2949;50.778;7.094;2023-04-15T05:08:36;8.27;;;4.77;;
5845;SDS011;2949;50.778;7.094;2023-04-15T05:11:02;9.07;;;4.50;;
5845;SDS011;2949;50.778;7.094;2023-04-15T05:13:27;12.80;;;4.70;;
5845;SDS011;2949;50.778;7.094;2023-04-15T05:15:54;13.10;;;4.20;;
5845;SDS011;2949;50.778;7.094;2023-04-15T05:18:19;13.43;;;4.80;;
5845;SDS011;2949;50.778;7.094;2023-04-15T05:20:45;6.93;;;4.60;;
5845;SDS011;2949;50.778;7.094;2023-04-15T05:23:10;13.67;;;4.60;;
5845;SDS011;2949;50.778;7.094;2023-04-15T05:25:36;8.97;;;4.90;;
5845;SDS011;2949;50.778;7.094;2023-04-15T05:28:01;12.17;;;4.40;;
5845;SDS011;2949;50.778;7.094;2023-04-15T05:30:27;8.77;;;4.90;;
5845;SDS011;2949;50.778;7.094;2023-04-15T05:32:53;6.40;;;4.87;;
5845;SDS011;2949;50.778;7.094;2023-04-15T05:35:18;12.70;;;4.30;;
5845;SDS011;2949;50.778;7.094;2023-04-15T05:37:44;8.70;;;4.27;;
5845;SDS011;2949;50.778;7.094;2023-04-15T05:40:09;10.10;;;4.50;;
5845;SDS011;2949;50.778;7.094;2023-04-15T05:42:35;5.40;;;3.30;;
5845;SDS011;2949;50.778;7.094;2023-04-15T05:45:01;3.87;;;3.47;;
5845;SDS011;2949;50.778;7.094;2023-04-15T05:47:33;9.50;;;3.80;;
5845;SDS011;2949;50.778;7.094;2023-04-15T05:50:01;6.50;;;3.60;;
5845;SDS011;2949;50.778;7.094;2023-04-15T05:52:28;4.17;;;2.97;;
5845;SDS011;2949;50.778;7.094;2023-04-15T05:54:54;10.83;;;3.90;;
5845;SDS011;2949;50.778;7.094;2023-04-15T05:57:20;11.20;;;3.50;;
5845;SDS011;2949;50.778;7.094;2023-04-15T05:59:46;6.00;;;3.07;;
5845;SDS011;2949;50.778;7.094;2023-04-15T06:02:11;5.93;;;2.10;;
5845;SDS011;2949;50.778;7.094;2023-04-15T06:04:37;6.93;;;2.87;;
5845;SDS011;2949;50.778;7.094;2023-04-15T06:07:03;3.23;;;2.30;;
5845;SDS011;2949;50.778;7.094;2023-04-15T06:09:28;9.23;;;2.73;;
5845;SDS011;2949;50.778;7.094;2023-04-15T06:11:54;8.10;;;3.43;;
5845;SDS011;2949;50.778;7.094;2023-04-15T06:14:21;10.40;;;4.90;;
5845;SDS011;2949;50.778;7.094;2023-04-15T06:16:47;4.90;;;2.83;;
5845;SDS011;2949;50.778;7.094;2023-04-15T06:19:13;8.80;;;2.77;;
5845;SDS011;2949;50.778;7.094;2023-04-15T06:21:38;9.13;;;4.23;;
5845;SDS011;2949;50.778;7.094;2023-04-15T06:24:04;9.00;;;3.73;;
5845;SDS011;2949;50.778;7.094;2023-04-15T06:26:30;7.13;;;3.50;;
5845;SDS011;2949;50.778;7.094;2023-04-15T06:28:56;10.70;;;4.13;;
5845;SDS011;2949;50.778;7.094;2023-04-15T06:31:21;6.77;;;3.60;;
5845;SDS011;2949;50.778;7.094;2023-04-15T06:33:47;9.00;;;3.50;;
5845;SDS011;2949;50.778;7.094;2023-04-15T06:36:12;10.57;;;3.00;;
5845;SDS011;2949;50.778;7.094;2023-04-15T06:38:38;9.33;;;4.13;;
5845;SDS011;2949;50.778;7.094;2023-04-15T06:41:03;11.77;;;4.17;;
5845;SDS011;2949;50.778;7.094;2023-04-15T06:43:29;4.10;;;3.20;;
5845;SDS011;2949;50.778;7.094;2023-04-15T06:45:55;6.50;;;3.23;;
5845;SDS011;2949;50.778;7.094;2023-04-15T06:48:20;6.63;;;2.97;;
5845;SDS011;2949;50.778;7.094;2023-04-15T06:50:46;7.17;;;3.07;;
5845;SDS011;2949;50.778;7.094;2023-04-15T06:53:12;8.87;;;3.00;;
5845;SDS011;2949;50.778;7.094;2023-04-15T06:55:38;6.63;;;3.07;;
5845;SDS011;2949;50.778;7.094;2023-04-15T06:58:04;7.53;;;2.73;;
5845;SDS011;2949;50.778;7.094;2023-04-15T07:00:30;6.40;;;3.10;;
5845;SDS011;2949;50.778;7.094;2023-04-15T07:02:57;6.70;;;2.93;;
5845;SDS011;2949;50.778;7.094;2023-04-15T07:05:23;11.47;;;3.30;;
5845;SDS011;2949;50.778;7.094;2023-04-15T07:07:49;4.77;;;2.80;;
5845;SDS011;2949;50.778;7.094;2023-04-15T07:10:15;3.50;;;2.47;;
5845;SDS011;2949;50.778;7.094;2023-04-15T07:12:41;5.20;;;3.37;;
5845;SDS011;2949;50.778;7.094;2023-04-15T07:15:06;5.20;;;3.20;;
5845;SDS011;2949;50.778;7.094;2023-04-15T07:17:32;5.07;;;2.80;;
5845;SDS011;2949;50.778;7.094;2023-04-15T07:19:58;4.13;;;3.03;;
5845;SDS011;2949;50.778;7.094;2023-04-15T07:22:23;5.00;;;3.43;;
5845;SDS011;2949;50.778;7.094;2023-04-15T07:24:50;16.43;;;3.77;;
5845;SDS011;2949;50.778;7.094;2023-04-15T07:27:15;4.90;;;3.07;;
5845;SDS011;2949;50.778;7.094;2023-04-15T07:29:41;7.80;;;3.40;;
5845;SDS011;2949;50.778;7.094;2023-04-15T07:32:07;7.60;;;2.97;;
5845;SDS011;2949;50.778;7.094;2023-04-15T07:34:34;6.73;;;3.60;;
5845;SDS011;2949;50.778;7.094;2023-04-15T07:37:00;5.83;;;3.33;;
5845;SDS011;2949;50.778;7.094;2023-04-15T07:39:25;10.40;;;3.80;;
5845;SDS011;2949;50.778;7.094;2023-04-15T07:41:51;5.90;;;2.80;;
5845;SDS011;2949;50.778;7.094;2023-04-15T07:44:17;11.50;;;4.20;;
5845;SDS011;2949;50.778;7.094;2023-04-15T07:46:42;14.30;;;3.57;;
5845;SDS011;2949;50.778;7.094;2023-04-15T07:49:08;6.90;;;3.83;;
5845;SDS011;2949;50.778;7.094;2023-04-15T07:51:33;8.70;;;4.13;;
5845;SDS011;2949;50.778;7.094;2023-04-15T07:53:59;6.33;;;3.80;;
5845;SDS011;2949;50.778;7.094;2023-04-15T07:56:24;10.00;;;4.30;;
5845;SDS011;2949;50.778;7.094;2023-04-15T07:58:50;7.60;;;3.87;;
5845;SDS011;2949;50.778;7.094;2023-04-15T08:01:16;6.77;;;3.90;;
5845;SDS011;2949;50.778;7.094;2023-04-15T08:03:41;5.00;;;3.40;;
5845;SDS011;2949;50.778;7.094;2023-04-15T08:06:07;9.37;;;3.67;;
5845;SDS011;2949;50.778;7.094;2023-04-15T08:08:33;8.03;;;4.40;;
5845;SDS011;2949;50.778;7.094;2023-04-15T08:10:58;5.17;;;4.03;;
5845;SDS011;2949;50.778;7.094;2023-04-15T08:13:24;11.33;;;4.20;;
5845;SDS011;2949;50.778;7.094;2023-04-15T08:15:52;9.33;;;3.67;;
5845;SDS011;2949;50.778;7.094;2023-04-15T08:18:40;6.73;;;3.97;;
5845;SDS011;2949;50.778;7.094;2023-04-15T08:21:05;6.67;;;4.30;;
5845;SDS011;2949;50.778;7.094;2023-04-15T08:23:31;4.87;;;3.70;;
5845;SDS011;2949;50.778;7.094;2023-04-15T08:25:57;9.40;;;3.87;;
5845;SDS011;2949;50.778;7.094;2023-04-15T08:28:23;6.93;;;4.80;;
5845;SDS011;2949;50.778;7.094;2023-04-15T08:30:48;13.93;;;4.07;;
5845;SDS011;2949;50.778;7.094;2023-04-15T08:33:14;6.23;;;5.07;;
5845;SDS011;2949;50.778;7.094;2023-04-15T08:35:40;14.90;;;4.17;;
5845;SDS011;2949;50.778;7.094;2023-04-15T08:38:06;12.43;;;3.60;;
5845;SDS011;2949;50.778;7.094;2023-04-15T08:40:34;6.40;;;3.80;;
5845;SDS011;2949;50.778;7.094;2023-04-15T08:43:23;6.97;;;2.93;;
5845;SDS011;2949;50.778;7.094;2023-04-15T08:45:54;5.70;;;2.70;;
5845;SDS011;2949;50.778;7.094;2023-04-15T08:48:22;4.23;;;1.73;;
5845;SDS011;2949;50.778;7.094;2023-04-15T08:50:52;5.23;;;3.50;;
5845;SDS011;2949;50.778;7.094;2023-04-15T08:53:18;9.23;;;2.93;;
5845;SDS011;2949;50.778;7.094;2023-04-15T08:55:45;6.83;;;3.37;;
5845;SDS011;2949;50.778;7.094;2023-04-15T08:58:15;6.03;;;3.90;;
5845;SDS011;2949;50.778;7.094;2023-04-15T09:00:40;6.97;;;3.87;;
5845;SDS011;2949;50.778;7.094;2023-04-15T09:03:06;5.43;;;3.90;;
5845;SDS011;2949;50.778;7.094;2023-04-15T09:05:35;10.73;;;3.70;;
5845;SDS011;2949;50.778;7.094;2023-04-15T09:08:02;4.20;;;2.23;;
5845;SDS011;2949;50.778;7.094;2023-04-15T09:10:29;1.60;;;1.13;;
5845;SDS011;2949;50.778;7.094;2023-04-15T09:12:55;1.40;;;1.00;;
5845;SDS011;2949;50.778;7.094;2023-04-15T09:15:22;4.13;;;1.90;;
5845;SDS011;2949;50.778;7.094;2023-04-15T09:17:49;1.93;;;1.40;;
5845;SDS011;2949;50.778;7.094;2023-04-15T09:20:15;3.13;;;0.97;;
5845;SDS011;2949;50.778;7.094;2023-04-15T09:22:44;1.73;;;1.10;;
5845;SDS011;2949;50.778;7.094;2023-04-15T09:27:49;1.73;;;0.97;;
5845;SDS011;2949;50.778;7.094;2023-04-15T09:30:16;1.90;;;0.93;;
5845;SDS011;2949;50.778;7.094;2023-04-15T09:32:48;1.33;;;1.17;;
5845;SDS011;2949;50.778;7.094;2023-04-15T09:35:22;0.80;;;0.80;;
5845;SDS011;2949;50.778;7.094;2023-04-15T09:37:49;2.00;;;1.17;;
5845;SDS011;2949;50.778;7.094;2023-04-15T09:40:29;1.20;;;0.97;;
5845;SDS011;2949;50.778;7.094;2023-04-15T09:42:58;2.13;;;1.20;;
5845;SDS011;2949;50.778;7.094;2023-04-15T09:45:26;5.03;;;1.60;;
5845;SDS011;2949;50.778;7.094;2023-04-15T09:47:51;1.33;;;1.20;;
5845;SDS011;2949;50.778;7.094;2023-04-15T09:50:20;2.67;;;1.10;;
5845;SDS011;2949;50.778;7.094;2023-04-15T09:52:46;1.30;;;1.30;;
5845;SDS011;2949;50.778;7.094;2023-04-15T09:55:12;1.30;;;1.20;;
5845;SDS011;2949;50.778;7.094;2023-04-15T09:57:39;3.93;;;0.93;;
5845;SDS011;2949;50.778;7.094;2023-04-15T10:00:11;1.53;;;1.10;;
5845;SDS011;2949;50.778;7.094;2023-04-15T10:02:38;2.00;;;1.20;;
5845;SDS011;2949;50.778;7.094;2023-04-15T10:05:06;1.13;;;1.00;;
5845;SDS011;2949;50.778;7.094;2023-04-15T10:07:34;2.77;;;1.53;;
5845;SDS011;2949;50.778;7.094;2023-04-15T10:10:00;0.90;;;0.80;;
5845;SDS011;2949;50.778;7.094;2023-04-15T10:12:28;0.93;;;0.70;;
5845;SDS011;2949;50.778;7.094;2023-04-15T10:14:55;2.07;;;1.10;;
5845;SDS011;2949;50.778;7.094;2023-04-15T10:17:25;1.83;;;1.27;;
5845;SDS011;2949;50.778;7.094;2023-04-15T10:19:59;3.60;;;1.23;;
5845;SDS011;2949;50.778;7.094;2023-04-15T10:22:26;1.60;;;1.50;;
5845;SDS011;2949;50.778;7.094;2023-04-15T10:24:52;1.73;;;1.40;;
5845;SDS011;2949;50.778;7.094;2023-04-15T10:27:23;1.40;;;1.30;;
5845;SDS011;2949;50.778;7.094;2023-04-15T10:29:49;1.00;;;1.00;;
5845;SDS011;2949;50.778;7.094;2023-04-15T10:32:16;1.77;;;1.67;;
5845;SDS011;2949;50.778;7.094;2023-04-15T10:34:45;1.40;;;1.00;;
5845;SDS011;2949;50.778;7.094;2023-04-15T10:37:18;1.03;;;1.00;;
5845;SDS011;2949;50.778;7.094;2023-04-15T10:39:45;6.30;;;2.57;;
5845;SDS011;2949;50.778;7.094;2023-04-15T10:42:12;4.10;;;1.57;;
5845;SDS011;2949;50.778;7.094;2023-04-15T10:44:50;2.47;;;1.30;;
5845;SDS011;2949;50.778;7.094;2023-04-15T10:47:20;3.63;;;1.37;;
5845;SDS011;2949;50.778;7.094;2023-04-15T10:49:47;1.50;;;1.40;;
5845;SDS011;2949;50.778;7.094;2023-04-15T10:52:21;1.60;;;1.50;;
5845;SDS011;2949;50.778;7.094;2023-04-15T10:54:48;1.30;;;1.20;;
5845;SDS011;2949;50.778;7.094;2023-04-15T10:57:14;4.83;;;1.70;;
5845;SDS011;2949;50.778;7.094;2023-04-15T11:05:18;1.97;;;1.70;;
5845;SDS011;2949;50.778;7.094;2023-04-15T11:12:46;2.33;;;2.13;;
5845;SDS011;2949;50.778;7.094;2023-04-15T11:18:09;2.60;;;1.97;;
5845;SDS011;2949;50.778;7.094;2023-04-15T11:20:43;2.13;;;1.93;;
5845;SDS011;2949;50.778;7.094;2023-04-15T11:23:11;1.83;;;1.63;;
5845;SDS011;2949;50.778;7.094;2023-04-15T11:25:37;2.00;;;1.90;;
5845;SDS011;2949;50.778;7.094;2023-04-15T11:28:03;3.47;;;2.10;;
5845;SDS011;2949;50.778;7.094;2023-04-15T11:30:30;1.70;;;1.60;;
5845;SDS011;2949;50.778;7.094;2023-04-15T11:32:58;2.27;;;2.17;;
5845;SDS011;2949;50.778;7.094;2023-04-15T11:35:25;1.93;;;1.80;;
5845;SDS011;2949;50.778;7.094;2023-04-15T11:37:50;3.93;;;1.73;;
5845;SDS011;2949;50.778;7.094;2023-04-15T11:40:19;1.70;;;1.60;;
5845;SDS011;2949;50.778;7.094;2023-04-15T11:43:02;1.90;;;1.80;;
5845;SDS011;2949;50.778;7.094;2023-04-15T11:45:34;2.03;;;1.93;;
5845;SDS011;2949;50.778;7.094;2023-04-15T11:48:04;3.87;;;2.00;;
5845;SDS011;2949;50.778;7.094;2023-04-15T11:50:34;2.20;;;2.00;;
5845;SDS011;2949;50.778;7.094;2023-04-15T11:53:01;6.00;;;1.40;;
5845;SDS011;2949;50.778;7.094;2023-04-15T11:55:28;2.23;;;1.77;;
5845;SDS011;2949;50.778;7.094;2023-04-15T12:06:07;1.40;;;1.30;;
5845;SDS011;2949;50.778;7.094;2023-04-15T12:13:52;1.77;;;1.67;;
5845;SDS011;2949;50.778;7.094;2023-04-15T12:16:19;1.70;;;1.60;;
5845;SDS011;2949;50.778;7.094;2023-04-15T12:18:45;1.50;;;1.40;;
5845;SDS011;2949;50.778;7.094;2023-04-15T12:21:12;1.40;;;1.30;;
5845;SDS011;2949;50.778;7.094;2023-04-15T12:23:50;1.93;;;1.83;;
5845;SDS011;2949;50.778;7.094;2023-04-15T12:26:17;1.90;;;1.80;;
5845;SDS011;2949;50.778;7.094;2023-04-15T12:28:49;1.63;;;1.53;;
5845;SDS011;2949;50.778;7.094;2023-04-15T12:31:19;1.20;;;1.20;;
5845;SDS011;2949;50.778;7.094;2023-04-15T12:33:47;1.60;;;1.60;;
5845;SDS011;2949;50.778;7.094;2023-04-15T12:36:13;1.67;;;1.57;;
5845;SDS011;2949;50.778;7.094;2023-04-15T12:38:39;4.80;;;2.03;;
5845;SDS011;2949;50.778;7.094;2023-04-15T12:41:04;2.30;;;1.80;;
5845;SDS011;2949;50.778;7.094;2023-04-15T12:43:30;2.20;;;2.10;;
5845;SDS011;2949;50.778;7.094;2023-04-15T12:45:55;5.20;;;2.00;;
5845;SDS011;2949;50.778;7.094;2023-04-15T12:48:21;2.70;;;2.50;;
5845;SDS011;2949;50.778;7.094;2023-04-15T12:50:46;2.30;;;2.20;;
5845;SDS011;2949;50.778;7.094;2023-04-15T12:53:13;2.17;;;2.03;;
5845;SDS011;2949;50.778;7.094;2023-04-15T12:55:38;2.30;;;1.80;;
5845;SDS011;2949;50.778;7.094;2023-04-15T12:58:04;2.00;;;1.90;;
5845;SDS011;2949;50.778;7.094;2023-04-15T13:00:29;1.67;;;1.50;;
5845;SDS011;2949;50.778;7.094;2023-04-15T13:02:58;2.87;;;2.67;;
5845;SDS011;2949;50.778;7.094;2023-04-15T13:05:24;3.27;;;3.07;;
5845;SDS011;2949;50.778;7.094;2023-04-15T13:07:50;2.90;;;2.70;;
5845;SDS011;2949;50.778;7.094;2023-04-15T13:10:15;3.10;;;2.90;;
5845;SDS011;2949;50.778;7.094;2023-04-15T13:12:41;3.50;;;3.20;;
5845;SDS011;2949;50.778;7.094;2023-04-15T13:15:06;3.53;;;3.00;;
5845;SDS011;2949;50.778;7.094;2023-04-15T13:17:35;2.90;;;2.70;;
5845;SDS011;2949;50.778;7.094;2023-04-15T13:20:00;2.90;;;2.63;;
5845;SDS011;2949;50.778;7.094;2023-04-15T13:22:26;2.47;;;2.27;;
5845;SDS011;2949;50.778;7.094;2023-04-15T13:24:51;2.40;;;2.23;;
5845;SDS011;2949;50.778;7.094;2023-04-15T13:27:17;1.93;;;1.83;;
5845;SDS011;2949;50.778;7.094;2023-04-15T13:29:42;2.20;;;2.10;;
5845;SDS011;2949;50.778;7.094;2023-04-15T13:32:08;2.47;;;2.27;;
5845;SDS011;2949;50.778;7.094;2023-04-15T13:34:33;2.30;;;2.10;;
5845;SDS011;2949;50.778;7.094;2023-04-15T13:37:04;4.20;;;2.50;;
5845;SDS011;2949;50.778;7.094;2023-04-15T13:39:31;3.20;;;2.50;;
5845;SDS011;2949;50.778;7.094;2023-04-15T13:41:56;2.63;;;2.40;;
5845;SDS011;2949;50.778;7.094;2023-04-15T13:44:22;2.73;;;2.53;;
5845;SDS011;2949;50.778;7.094;2023-04-15T13:46:47;2.97;;;2.77;;
5845;SDS011;2949;50.778;7.094;2023-04-15T13:49:13;3.00;;;2.80;;
5845;SDS011;2949;50.778;7.094;2023-04-15T13:51:38;3.13;;;2.93;;
5845;SDS011;2949;50.778;7.094;2023-04-15T13:54:04;4.30;;;3.13;;
5845;SDS011;2949;50.778;7.094;2023-04-15T13:56:30;4.30;;;3.90;;
5845;SDS011;2949;50.778;7.094;2023-04-15T13:58:55;7.23;;;4.00;;
5845;SDS011;2949;50.778;7.094;2023-04-15T14:01:23;6.43;;;4.20;;
5845;SDS011;2949;50.778;7.094;2023-04-15T14:03:52;5.70;;;5.10;;
5845;SDS011;2949;50.778;7.094;2023-04-15T14:06:17;5.50;;;4.77;;
5845;SDS011;2949;50.778;7.094;2023-04-15T14:08:43;7.50;;;5.40;;
5845;SDS011;2949;50.778;7.094;2023-04-15T14:11:09;5.97;;;5.40;;
5845;SDS011;2949;50.778;7.094;2023-04-15T14:13:36;6.40;;;5.30;;
5845;SDS011;2949;50.778;7.094;2023-04-15T14:16:01;5.73;;;5.23;;
5845;SDS011;2949;50.778;7.094;2023-04-15T14:18:27;6.20;;;5.30;;
5845;SDS011;2949;50.778;7.094;2023-04-15T14:20:53;5.40;;;5.00;;
5845;SDS011;2949;50.778;7.094;2023-04-15T14:23:19;5.83;;;5.23;;
5845;SDS011;2949;50.778;7.094;2023-04-15T14:25:45;10.33;;;5.77;;
5845;SDS011;2949;50.778;7.094;2023-04-15T14:28:10;5.43;;;4.93;;
5845;SDS011;2949;50.778;7.094;2023-04-15T14:30:36;6.60;;;5.17;;
5845;SDS011;2949;50.778;7.094;2023-04-15T14:33:01;6.00;;;5.40;;
5845;SDS011;2949;50.778;7.094;2023-04-15T14:35:27;7.10;;;6.10;;
5845;SDS011;2949;50.778;7.094;2023-04-15T14:37:53;5.47;;;4.77;;
5845;SDS011;2949;50.778;7.094;2023-04-15T14:40:19;10.17;;;4.77;;
5845;SDS011;2949;50.778;7.094;2023-04-15T14:42:45;3.77;;;3.47;;
5845;SDS011;2949;50.778;7.094;2023-04-15T14:45:10;3.20;;;2.93;;
5845;SDS011;2949;50.778;7.094;2023-04-15T14:47:36;2.63;;;2.43;;
5845;SDS011;2949;50.778;7.094;2023-04-15T14:50:02;4.17;;;3.77;;
5845;SDS011;2949;50.778;7.094;2023-04-15T14:52:29;7.53;;;5.20;;
5845;SDS011;2949;50.778;7.094;2023-04-15T14:54:56;5.87;;;4.93;;
5845;SDS011;2949;50.778;7.094;2023-04-15T14:57:22;5.60;;;4.77;;
5845;SDS011;2949;50.778;7.094;2023-04-15T14:59:48;4.90;;;4.50;;
5845;SDS011;2949;50.778;7.094;2023-04-15T15:02:13;6.30;;;5.43;;
5845;SDS011;2949;50.778;7.094;2023-04-15T15:04:39;5.80;;;5.17;;
5845;SDS011;2949;50.778;7.094;2023-04-15T15:07:05;6.20;;;5.13;;
5845;SDS011;2949;50.778;7.094;2023-04-15T15:09:30;6.90;;;5.00;;
5845;SDS011;2949;50.778;7.094;2023-04-15T15:11:56;5.30;;;4.60;;
5845;SDS011;2949;50.778;7.094;2023-04-15T15:14:21;5.10;;;4.40;;
5845;SDS011;2949;50.778;7.094;2023-04-15T15:16:47;6.33;;;4.10;;
5845;SDS011;2949;50.778;7.094;2023-04-15T15:19:13;3.43;;;3.13;;
5845;SDS011;2949;50.778;7.094;2023-04-15T15:21:38;4.67;;;3.87;;
5845;SDS011;2949;50.778;7.094;2023-04-15T15:24:04;6.10;;;3.90;;
5845;SDS011;2949;50.778;7.094;2023-04-15T15:26:30;4.60;;;3.93;;
5845;SDS011;2949;50.778;7.094;2023-04-15T15:28:55;6.90;;;5.00;;
5845;SDS011;2949;50.778;7.094;2023-04-15T15:31:21;11.20;;;7.33;;
5845;SDS011;2949;50.778;7.094;2023-04-15T15:33:46;12.83;;;8.63;;
5845;SDS011;2949;50.778;7.094;2023-04-15T15:36:12;11.73;;;8.67;;
5845;SDS011;2949;50.778;7.094;2023-04-15T15:38:38;10.73;;;7.77;;